This is the latest recevied weather packets stored in our database for station/object HI3RRR-14. If no packets are shown the sender has not sent any weather packets the latest 10 day(s).
| Time | Temp. | Humidity | Pressure | Rain* | Wind** | Luminosity | Snow |
|---|---|---|---|---|---|---|---|
| 1778376174 | 23.33° C | 82% | 1017 hPa | 0 mm | - | - | - |
| 1778375569 | 23.89° C | 83% | 1017 hPa | 0 mm | - | - | - |
| 1778374958 | 23.89° C | 83% | 1017 hPa | 0 mm | - | - | - |
| 1778374347 | 23.33° C | 84% | 1017 hPa | 0 mm | - | - | - |
| 1778373737 | 23.33° C | 83% | 1017 hPa | 0 mm | - | - | - |
| 1778373126 | 23.89° C | 83% | 1017 hPa | 0 mm | - | - | - |
| 1778372515 | 24.44° C | 79% | 1016 hPa | 0 mm | - | - | - |
| 1778371905 | 24.44° C | 79% | 1016 hPa | 0 mm | - | - | - |
| 1778371294 | 24.44° C | 80% | 1016 hPa | 0 mm | - | - | - |
| 1778370683 | 24.44° C | 80% | 1016 hPa | 0 mm | - | - | - |
| 1778370073 | 24.44° C | 78% | 1016 hPa | 0 mm | - | - | - |
| 1778369462 | 24.44° C | 78% | 1016 hPa | 0 mm | - | - | - |
| 1778368851 | 25° C | 73% | 1015 hPa | 0 mm | - | - | - |
| 1778368241 | 25.56° C | 72% | 1015 hPa | 0 mm | - | - | - |
| 1778367630 | 25.56° C | 73% | 1015 hPa | 0 mm | - | - | - |
| 1778367020 | 25.56° C | 73% | 1015 hPa | 0 mm | - | - | - |
| 1778366409 | 25.56° C | 71% | 1015 hPa | 0 mm | - | - | - |
| 1778365799 | 26.67° C | 65% | 1014 hPa | 0 mm | - | - | - |
| 1778365188 | 26.67° C | 65% | 1014 hPa | 0 mm | - | - | - |
| 1778364577 | 27.22° C | 64% | 1014 hPa | 0 mm | - | - | - |
| 1778363967 | 27.22° C | 65% | 1014 hPa | 0 mm | - | - | - |
| 1778363356 | 27.22° C | 65% | 1014 hPa | 0 mm | - | - | - |
| 1778362745 | 27.22° C | 63% | 1014 hPa | 0 mm | - | - | - |
| 1778362135 | 28.33° C | 59% | 1014 hPa | 0 mm | - | - | - |
| 1778361524 | 28.33° C | 59% | 1014 hPa | 0 mm | - | - | - |
* Rain latest hour (hover to see other rain measurements)
** Current wind speed in m/s (hover to see current wind gust speed)